Time;durP1;ratioP1;P1;durP2;ratioP2;P2;SDS_P1;SDS_P2;PMS_P1;PMS_P2;Temp;Humidity;BMP_temperature;BMP_pressure;BME280_temperature;BME280_humidity;BME280_pressure;Samples;Min_cycle;Max_cycle;Signal;HPM_P1;HPM_P2
2021/05/30 00:04:51;;;;;;;2.53;1.33;;;11.60;99.90;;;;;;20986708;28;20043;-78
2021/05/30 00:14:52;;;;;;;2.45;1.02;;;11.40;99.90;;;;;;20977863;28;20021;-77
2021/05/30 00:24:52;;;;;;;2.03;1.50;;;11.20;99.90;;;;;;20921326;28;20029;-79
2021/05/30 00:34:54;;;;;;;2.20;1.13;;;11.00;99.90;;;;;;20939238;28;20032;-79
2021/05/30 00:44:55;;;;;;;3.83;1.03;;;10.70;99.90;;;;;;20934031;28;20032;-78
2021/05/30 00:54:56;;;;;;;2.10;1.10;;;10.70;99.90;;;;;;20936908;28;20032;-78
2021/05/30 01:04:56;;;;;;;1.53;0.93;;;10.80;99.90;;;;;;20947144;28;20031;-78
2021/05/30 01:14:57;;;;;;;3.33;1.23;;;11.00;99.90;;;;;;20945578;28;20028;-77
2021/05/30 01:24:58;;;;;;;3.13;1.27;;;10.60;99.90;;;;;;20977807;28;20101;-77
2021/05/30 01:35:00;;;;;;;1.70;1.10;;;10.30;99.90;;;;;;20992657;28;20056;-77
2021/05/30 01:45:01;;;;;;;5.20;1.30;;;10.30;99.90;;;;;;20992004;28;20036;-77
2021/05/30 01:55:04;;;;;;;1.92;1.30;;;10.40;99.90;;;;;;20990409;28;20032;-78
2021/05/30 02:05:07;;;;;;;1.80;1.33;;;10.20;99.90;;;;;;20972478;28;20119;-77
2021/05/30 02:15:09;;;;;;;4.93;1.35;;;10.40;99.90;;;;;;20989659;28;20028;-78
2021/05/30 02:25:11;;;;;;;1.95;1.40;;;10.20;99.90;;;;;;20990768;28;20483;-76
2021/05/30 02:35:12;;;;;;;1.85;1.50;;;10.10;99.90;;;;;;20988613;28;20394;-77
2021/05/30 02:45:13;;;;;;;1.70;1.10;;;10.30;99.90;;;;;;20989639;28;20029;-78
2021/05/30 02:55:14;;;;;;;2.20;1.20;;;10.20;99.90;;;;;;20987785;28;20471;-77
2021/05/30 03:05:15;;;;;;;2.17;1.43;;;10.10;99.90;;;;;;20988567;28;20032;-78
2021/05/30 03:15:16;;;;;;;1.47;1.30;;;10.10;99.90;;;;;;20996288;28;20589;-77
2021/05/30 03:25:17;;;;;;;2.13;1.33;;;10.00;99.90;;;;;;21001911;28;20039;-76
2021/05/30 03:35:18;;;;;;;2.23;1.50;;;9.90;99.90;;;;;;21012286;28;20032;-77
2021/05/30 03:45:23;;;;;;;1.57;1.23;;;9.50;99.90;;;;;;21001357;28;20029;-78
2021/05/30 03:55:24;;;;;;;5.40;1.92;;;9.60;99.90;;;;;;21000967;28;20025;-77
2021/05/30 04:05:25;;;;;;;5.80;1.50;;;9.30;99.90;;;;;;20999961;28;20050;-76
2021/05/30 04:15:26;;;;;;;4.67;1.50;;;9.40;99.90;;;;;;20998944;28;20436;-77
2021/05/30 04:25:27;;;;;;;1.97;1.50;;;9.40;99.90;;;;;;20996224;28;20090;-77
2021/05/30 04:35:28;;;;;;;2.40;1.67;;;9.60;99.90;;;;;;20996295;28;20044;-77
2021/05/30 04:45:29;;;;;;;2.93;1.80;;;9.70;99.90;;;;;;20996604;28;20032;-76
2021/05/30 04:55:30;;;;;;;2.33;1.63;;;9.80;99.90;;;;;;20994532;28;20032;-79
2021/05/30 05:05:30;;;;;;;1.50;1.13;;;10.20;99.90;;;;;;20995065;28;20578;-78
2021/05/30 05:15:31;;;;;;;3.10;1.43;;;10.40;99.90;;;;;;20815074;23;20042;-80
2021/05/30 05:25:35;;;;;;;2.63;1.60;;;10.70;99.90;;;;;;20726658;28;20106;-79
2021/05/30 05:35:36;;;;;;;3.72;1.65;;;11.00;99.90;;;;;;20699405;28;20045;-80
2021/05/30 05:45:38;;;;;;;2.23;1.57;;;11.30;99.90;;;;;;20668074;28;20034;-76
2021/05/30 05:55:38;;;;;;;1.75;1.42;;;11.60;99.90;;;;;;20663941;28;20064;-79
2021/05/30 06:05:40;;;;;;;3.57;1.50;;;11.80;99.90;;;;;;20679619;28;20026;-78
2021/05/30 06:15:42;;;;;;;2.27;1.27;;;12.40;99.90;;;;;;20747459;28;20400;-78
2021/05/30 06:25:43;;;;;;;;;;;12.70;99.90;;;;;;20761892;28;20029;-80
2021/05/30 06:35:44;;;;;;;1.52;1.00;;;13.40;99.90;;;;;;20751376;28;19913;-78
2021/05/30 06:45:45;;;;;;;1.98;1.35;;;13.80;99.90;;;;;;20745297;28;20492;-75
2021/05/30 06:55:45;;;;;;;1.40;1.30;;;14.10;99.90;;;;;;20758293;28;20110;-76
2021/05/30 07:05:47;;;;;;;3.75;1.20;;;14.60;99.90;;;;;;20757410;28;20062;-76
2021/05/30 07:15:52;;;;;;;1.63;1.10;;;15.00;99.90;;;;;;20756418;28;20135;-77
2021/05/30 07:25:55;;;;;;;1.42;1.00;;;16.00;99.90;;;;;;20753435;28;20021;-77
2021/05/30 07:35:55;;;;;;;2.53;1.00;;;16.70;99.90;;;;;;20735082;28;20045;-77
2021/05/30 07:45:56;;;;;;;2.10;1.13;;;17.10;99.90;;;;;;20724235;28;20514;-79
2021/05/30 07:55:57;;;;;;;1.80;1.07;;;17.40;99.90;;;;;;20707986;28;20029;-78
2021/05/30 08:05:58;;;;;;;1.37;1.03;;;17.90;99.90;;;;;;20717714;28;20511;-77
2021/05/30 08:15:59;;;;;;;1.75;1.13;;;17.80;99.90;;;;;;20751543;28;20033;-77
2021/05/30 08:26:00;;;;;;;1.93;1.10;;;17.70;99.90;;;;;;20734209;28;20068;-77
2021/05/30 08:36:01;;;;;;;2.37;1.30;;;19.00;99.90;;;;;;20751130;28;20026;-77
2021/05/30 08:46:02;;;;;;;1.93;1.20;;;18.30;99.90;;;;;;20748380;28;20088;-77
2021/05/30 08:56:04;;;;;;;2.37;0.90;;;18.50;99.90;;;;;;20675287;28;20085;-77
2021/05/30 09:06:18;;;;;;;0.88;0.73;;;19.50;99.90;;;;;;20705418;28;20109;-77
2021/05/30 09:16:23;;;;;;;4.28;1.10;;;18.90;99.90;;;;;;20742512;28;20116;-77
2021/05/30 09:26:25;;;;;;;1.65;1.00;;;19.40;99.90;;;;;;20726069;28;20030;-78
2021/05/30 09:36:25;;;;;;;1.20;0.90;;;19.50;99.90;;;;;;20734991;28;20530;-78
2021/05/30 09:46:34;;;;;;;2.23;1.20;;;20.50;99.00;;;;;;20629707;28;20035;-77
2021/05/30 09:56:38;;;;;;;5.13;1.10;;;20.20;99.20;;;;;;20641872;28;20031;-78
2021/05/30 10:06:42;;;;;;;3.65;1.00;;;21.20;97.70;;;;;;20731284;28;20038;-79
2021/05/30 10:16:43;;;;;;;2.13;0.90;;;20.70;98.40;;;;;;20656733;28;20472;-81
2021/05/30 10:26:44;;;;;;;1.13;0.90;;;21.00;98.10;;;;;;20660152;28;20614;-79
2021/05/30 10:36:57;;;;;;;2.00;1.30;;;21.20;98.40;;;;;;20666217;28;20058;-78
2021/05/30 10:46:58;;;;;;;1.63;0.90;;;20.80;96.90;;;;;;20734670;28;20337;-77
2021/05/30 10:56:59;;;;;;;1.87;1.23;;;20.90;95.30;;;;;;20744488;28;20033;-82
2021/05/30 11:07:13;;;;;;;2.23;1.20;;;21.70;94.90;;;;;;20749726;28;20029;-80
2021/05/30 11:17:34;;;;;;;3.42;1.20;;;20.50;94.90;;;;;;20760548;23;20100;-81
2021/05/30 11:27:57;;;;;;;8.30;1.17;;;21.10;94.30;;;;;;20758081;28;20042;-80
2021/05/30 11:37:59;;;;;;;2.08;0.80;;;22.40;95.90;;;;;;20746734;28;20042;-74
2021/05/30 11:48:11;;;;;;;1.70;1.00;;;22.20;92.80;;;;;;20739273;28;20033;-76
2021/05/30 11:58:12;;;;;;;3.00;1.15;;;22.60;92.10;;;;;;20733345;28;20594;-75
2021/05/30 12:08:17;;;;;;;1.40;0.77;;;22.60;88.60;;;;;;20729851;28;20048;-76
2021/05/30 12:18:18;;;;;;;0.93;0.88;;;22.10;94.10;;;;;;20788580;28;20037;-76
2021/05/30 12:28:33;;;;;;;1.63;1.10;;;21.60;94.00;;;;;;20813238;28;20026;-76
2021/05/30 12:38:34;;;;;;;1.92;0.90;;;22.70;92.10;;;;;;20809359;28;20040;-74
2021/05/30 12:48:37;;;;;;;1.20;0.60;;;23.30;90.20;;;;;;20784365;28;20042;-74
2021/05/30 12:58:38;;;;;;;3.55;1.88;;;22.50;90.40;;;;;;20771893;28;20043;-76
2021/05/30 13:08:39;;;;;;;2.77;1.60;;;22.90;84.90;;;;;;20768018;28;20030;-76
2021/05/30 13:18:52;;;;;;;1.67;1.10;;;22.90;83.40;;;;;;20770431;28;20084;-76
2021/05/30 13:28:53;;;;;;;1.77;1.33;;;22.90;81.20;;;;;;20764917;28;20092;-75
2021/05/30 13:38:54;;;;;;;5.77;1.80;;;22.30;85.70;;;;;;20763307;28;20033;-75
2021/05/30 13:48:56;;;;;;;1.43;1.30;;;22.50;84.50;;;;;;20762439;28;20438;-75
2021/05/30 13:58:57;;;;;;;2.92;1.85;;;22.30;83.50;;;;;;20795020;28;20037;-75
2021/05/30 14:08:59;;;;;;;2.42;1.40;;;22.70;82.00;;;;;;20758863;28;20081;-75
2021/05/30 14:19:00;;;;;;;2.27;1.40;;;23.20;84.80;;;;;;20781883;28;20127;-75
2021/05/30 14:29:01;;;;;;;4.83;1.87;;;23.00;75.70;;;;;;20773187;28;20029;-75
2021/05/30 14:39:04;;;;;;;4.03;1.20;;;22.90;79.30;;;;;;20796888;28;20112;-76
2021/05/30 14:49:05;;;;;;;2.85;1.60;;;22.90;80.20;;;;;;20799630;28;20125;-75
2021/05/30 14:59:07;;;;;;;7.53;1.60;;;22.40;76.10;;;;;;20789138;28;20500;-74
2021/05/30 15:09:08;;;;;;;5.15;1.40;;;22.50;83.40;;;;;;20787327;28;20117;-76
2021/05/30 15:19:09;;;;;;;4.97;1.90;;;22.30;77.40;;;;;;20757442;28;20079;-74
2021/05/30 15:29:10;;;;;;;5.23;1.47;;;22.10;81.00;;;;;;20777848;28;20138;-74
2021/05/30 15:39:11;;;;;;;4.73;2.00;;;21.80;79.60;;;;;;20785416;28;20524;-76
2021/05/30 15:49:11;;;;;;;3.07;1.60;;;21.20;81.90;;;;;;20764650;28;20116;-73
2021/05/30 15:59:13;;;;;;;2.20;1.63;;;21.40;81.00;;;;;;20730148;28;20032;-74
2021/05/30 16:09:14;;;;;;;4.22;1.83;;;21.10;82.30;;;;;;20791103;28;20043;-75
2021/05/30 16:19:15;;;;;;;4.30;1.70;;;20.60;78.40;;;;;;20809557;28;20512;-75
2021/05/30 16:29:16;;;;;;;4.73;1.97;;;20.80;78.60;;;;;;20809941;28;20041;-74
2021/05/30 16:39:18;;;;;;;2.97;1.53;;;20.60;79.00;;;;;;20791513;28;20034;-74
2021/05/30 16:49:19;;;;;;;5.10;1.88;;;20.40;77.80;;;;;;20795546;28;20033;-75
2021/05/30 16:59:21;;;;;;;6.90;2.33;;;20.20;80.80;;;;;;20764905;28;20664;-75
2021/05/30 17:09:21;;;;;;;;;;;19.90;84.40;;;;;;20737964;23;20591;-74
2021/05/30 17:19:22;;;;;;;5.03;1.85;;;19.50;82.60;;;;;;20804156;28;19916;-75
2021/05/30 17:29:23;;;;;;;3.87;2.07;;;19.30;82.90;;;;;;20743178;28;20041;-76
2021/05/30 17:39:24;;;;;;;4.13;2.00;;;19.30;83.40;;;;;;20722813;28;20112;-76
2021/05/30 17:49:25;;;;;;;5.97;1.90;;;19.00;83.80;;;;;;20722425;28;20734;-76
2021/05/30 17:59:26;;;;;;;4.00;1.90;;;19.40;85.00;;;;;;20730809;28;20051;-78
2021/05/30 18:09:27;;;;;;;3.70;1.60;;;20.40;83.10;;;;;;20771387;28;20030;-77
2021/05/30 18:19:28;;;;;;;3.63;1.83;;;20.80;82.40;;;;;;20709941;28;20046;-76
2021/05/30 18:29:29;;;;;;;3.37;1.87;;;20.90;82.20;;;;;;20714655;28;20742;-76
2021/05/30 18:39:30;;;;;;;3.78;1.75;;;18.90;85.60;;;;;;20718944;28;20030;-77
2021/05/30 18:49:31;;;;;;;5.28;2.25;;;17.90;87.80;;;;;;20734220;28;20037;-76
2021/05/30 18:59:32;;;;;;;6.32;1.98;;;17.20;90.40;;;;;;20720480;28;20041;-76
2021/05/30 19:09:33;;;;;;;6.43;2.20;;;17.00;90.90;;;;;;20652178;28;20507;-76
2021/05/30 19:19:34;;;;;;;5.00;2.40;;;16.50;91.70;;;;;;20703209;28;20121;-76
2021/05/30 19:29:35;;;;;;;3.42;1.70;;;16.20;92.50;;;;;;20714389;28;20048;-78
2021/05/30 19:39:36;;;;;;;4.75;2.03;;;16.00;92.50;;;;;;20695000;28;20668;-79
2021/05/30 19:49:37;;;;;;;3.88;2.40;;;15.60;93.60;;;;;;20675644;28;20038;-80
2021/05/30 19:59:37;;;;;;;5.25;2.33;;;15.40;94.10;;;;;;20694500;28;20042;-79
2021/05/30 20:09:38;;;;;;;4.85;1.85;;;15.10;95.30;;;;;;20687714;28;20038;-79
2021/05/30 20:19:39;;;;;;;4.93;2.40;;;14.90;95.20;;;;;;20665065;28;20069;-79
2021/05/30 20:29:40;;;;;;;5.20;2.75;;;14.60;95.80;;;;;;20673033;28;20045;-79
2021/05/30 20:39:41;;;;;;;4.20;2.13;;;14.40;96.90;;;;;;20701547;28;20045;-79
2021/05/30 20:49:42;;;;;;;4.38;2.10;;;14.10;97.10;;;;;;20821645;28;20044;-78
2021/05/30 20:59:43;;;;;;;5.60;2.15;;;13.80;98.20;;;;;;20774564;28;20542;-78
2021/05/30 21:09:44;;;;;;;5.43;2.53;;;13.60;99.40;;;;;;20819572;28;20033;-79
2021/05/30 21:19:45;;;;;;;6.05;2.08;;;13.50;99.90;;;;;;20862349;28;20035;-79
2021/05/30 21:29:46;;;;;;;10.05;2.63;;;13.50;99.80;;;;;;20864298;28;20061;-77
2021/05/30 21:39:47;;;;;;;3.97;2.42;;;13.30;99.90;;;;;;20862047;28;20029;-78
2021/05/30 21:49:48;;;;;;;5.87;2.20;;;13.10;99.90;;;;;;20779848;28;20064;-78
2021/05/30 21:59:50;;;;;;;3.22;2.33;;;12.90;99.90;;;;;;20727594;28;20033;-78
2021/05/30 22:09:51;;;;;;;7.77;2.87;;;12.60;99.90;;;;;;20868671;28;20041;-78
2021/05/30 22:19:51;;;;;;;3.95;2.38;;;12.60;99.90;;;;;;20861740;28;20280;-78
2021/05/30 22:29:52;;;;;;;5.47;3.15;;;12.30;99.90;;;;;;20751795;28;20419;-76
2021/05/30 22:39:53;;;;;;;9.60;3.00;;;12.10;99.90;;;;;;20762690;28;20030;-80
2021/05/30 22:49:54;;;;;;;4.55;2.95;;;11.80;99.90;;;;;;20759797;28;20068;-78
2021/05/30 22:59:55;;;;;;;5.43;2.87;;;11.60;99.90;;;;;;20763457;28;20014;-78
2021/05/30 23:09:56;;;;;;;6.25;2.85;;;11.50;99.90;;;;;;20759271;28;20050;-79
2021/05/30 23:19:56;;;;;;;4.93;2.45;;;11.40;99.90;;;;;;20767396;28;20048;-77
2021/05/30 23:29:57;;;;;;;7.87;2.70;;;11.40;99.90;;;;;;20859262;28;20503;-77
2021/05/30 23:39:59;;;;;;;5.90;2.92;;;11.40;99.90;;;;;;20884445;28;20040;-76
2021/05/30 23:50:00;;;;;;;5.70;2.90;;;10.90;99.90;;;;;;20882843;28;20039;-78
